sensor_id;sensor_type;location;lat;lon;timestamp;P1;durP1;ratioP1;P2;durP2;ratioP2
29776;SDS011;16677;52.224;7.484;2023-04-06T06:41:04;11.27;;;8.60;;
29776;SDS011;16677;52.224;7.484;2023-04-06T06:43:31;10.13;;;8.55;;
29776;SDS011;16677;52.224;7.484;2023-04-06T06:45:58;11.82;;;8.60;;
29776;SDS011;16677;52.224;7.484;2023-04-06T06:48:26;9.68;;;8.48;;
29776;SDS011;16677;52.224;7.484;2023-04-06T06:50:53;19.90;;;9.05;;
29776;SDS011;16677;52.224;7.484;2023-04-06T06:53:20;12.67;;;8.50;;
29776;SDS011;16677;52.224;7.484;2023-04-06T06:55:48;10.38;;;8.48;;
29776;SDS011;16677;52.224;7.484;2023-04-06T06:58:15;8.90;;;8.00;;
29776;SDS011;16677;52.224;7.484;2023-04-06T07:00:44;9.18;;;8.30;;
29776;SDS011;16677;52.224;7.484;2023-04-06T07:03:11;9.43;;;8.53;;
29776;SDS011;16677;52.224;7.484;2023-04-06T07:05:39;8.83;;;7.90;;
29776;SDS011;16677;52.224;7.484;2023-04-06T07:08:22;9.17;;;8.27;;
29776;SDS011;16677;52.224;7.484;2023-04-06T07:10:51;10.73;;;8.93;;
29776;SDS011;16677;52.224;7.484;2023-04-06T07:13:19;9.73;;;8.07;;
29776;SDS011;16677;52.224;7.484;2023-04-06T07:15:50;10.53;;;8.77;;
29776;SDS011;16677;52.224;7.484;2023-04-06T07:18:18;9.43;;;8.50;;
29776;SDS011;16677;52.224;7.484;2023-04-06T07:20:46;9.33;;;8.40;;
29776;SDS011;16677;52.224;7.484;2023-04-06T07:23:13;9.13;;;8.17;;
29776;SDS011;16677;52.224;7.484;2023-04-06T07:25:40;9.37;;;8.13;;
29776;SDS011;16677;52.224;7.484;2023-04-06T07:28:08;9.30;;;8.30;;
29776;SDS011;16677;52.224;7.484;2023-04-06T07:30:36;9.97;;;8.37;;
29776;SDS011;16677;52.224;7.484;2023-04-06T07:33:04;10.47;;;8.20;;
29776;SDS011;16677;52.224;7.484;2023-04-06T07:35:32;10.67;;;8.73;;
29776;SDS011;16677;52.224;7.484;2023-04-06T07:38:01;10.07;;;8.97;;
29776;SDS011;16677;52.224;7.484;2023-04-06T07:40:28;10.07;;;8.73;;
29776;SDS011;16677;52.224;7.484;2023-04-06T07:42:57;10.60;;;8.60;;
29776;SDS011;16677;52.224;7.484;2023-04-06T07:45:25;10.97;;;9.77;;
29776;SDS011;16677;52.224;7.484;2023-04-06T07:47:52;12.13;;;9.57;;
29776;SDS011;16677;52.224;7.484;2023-04-06T07:50:19;13.30;;;10.73;;
29776;SDS011;16677;52.224;7.484;2023-04-06T07:52:46;10.87;;;8.93;;
29776;SDS011;16677;52.224;7.484;2023-04-06T07:55:13;9.37;;;8.30;;
29776;SDS011;16677;52.224;7.484;2023-04-06T07:57:40;12.27;;;9.60;;
29776;SDS011;16677;52.224;7.484;2023-04-06T08:00:08;10.20;;;8.83;;
29776;SDS011;16677;52.224;7.484;2023-04-06T08:02:36;11.13;;;8.97;;
29776;SDS011;16677;52.224;7.484;2023-04-06T08:05:03;12.47;;;9.17;;
29776;SDS011;16677;52.224;7.484;2023-04-06T08:07:32;14.23;;;10.27;;
29776;SDS011;16677;52.224;7.484;2023-04-06T08:09:59;11.13;;;9.70;;
29776;SDS011;16677;52.224;7.484;2023-04-06T08:12:26;10.17;;;9.07;;
29776;SDS011;16677;52.224;7.484;2023-04-06T08:14:53;11.00;;;9.67;;
29776;SDS011;16677;52.224;7.484;2023-04-06T08:17:20;11.33;;;9.63;;
29776;SDS011;16677;52.224;7.484;2023-04-06T08:19:47;10.97;;;9.77;;
29776;SDS011;16677;52.224;7.484;2023-04-06T08:22:14;13.20;;;10.03;;
29776;SDS011;16677;52.224;7.484;2023-04-06T08:24:41;10.97;;;9.87;;
29776;SDS011;16677;52.224;7.484;2023-04-06T08:27:08;12.50;;;9.97;;
29776;SDS011;16677;52.224;7.484;2023-04-06T08:29:36;10.37;;;9.27;;
29776;SDS011;16677;52.224;7.484;2023-04-06T08:32:03;11.97;;;9.73;;
29776;SDS011;16677;52.224;7.484;2023-04-06T08:34:32;11.40;;;10.20;;
29776;SDS011;16677;52.224;7.484;2023-04-06T08:36:59;13.50;;;10.43;;
29776;SDS011;16677;52.224;7.484;2023-04-06T08:39:27;11.77;;;10.07;;
29776;SDS011;16677;52.224;7.484;2023-04-06T08:41:56;13.50;;;9.70;;
29776;SDS011;16677;52.224;7.484;2023-04-06T08:44:26;12.90;;;10.43;;
29776;SDS011;16677;52.224;7.484;2023-04-06T08:46:53;12.23;;;11.00;;
29776;SDS011;16677;52.224;7.484;2023-04-06T08:49:21;10.80;;;9.70;;
29776;SDS011;16677;52.224;7.484;2023-04-06T08:51:48;14.43;;;11.03;;
29776;SDS011;16677;52.224;7.484;2023-04-06T08:54:17;13.47;;;11.53;;
29776;SDS011;16677;52.224;7.484;2023-04-06T08:56:44;14.33;;;10.40;;
29776;SDS011;16677;52.224;7.484;2023-04-06T08:59:12;12.97;;;10.40;;
29776;SDS011;16677;52.224;7.484;2023-04-06T09:01:40;14.10;;;10.83;;
29776;SDS011;16677;52.224;7.484;2023-04-06T09:04:09;11.17;;;10.07;;
29776;SDS011;16677;52.224;7.484;2023-04-06T09:06:39;12.60;;;10.73;;
29776;SDS011;16677;52.224;7.484;2023-04-06T09:09:07;11.03;;;10.03;;
29776;SDS011;16677;52.224;7.484;2023-04-06T09:11:48;20.27;;;15.50;;
29776;SDS011;16677;52.224;7.484;2023-04-06T09:29:37;11.67;;;10.20;;
29776;SDS011;16677;52.224;7.484;2023-04-06T09:32:07;11.70;;;10.30;;
29776;SDS011;16677;52.224;7.484;2023-04-06T09:34:43;11.70;;;10.17;;
29776;SDS011;16677;52.224;7.484;2023-04-06T09:37:16;12.20;;;10.83;;
29776;SDS011;16677;52.224;7.484;2023-04-06T09:39:45;13.30;;;11.07;;
29776;SDS011;16677;52.224;7.484;2023-04-06T09:42:25;13.83;;;10.73;;
29776;SDS011;16677;52.224;7.484;2023-04-06T09:44:52;15.47;;;11.83;;
29776;SDS011;16677;52.224;7.484;2023-04-06T09:47:19;13.00;;;11.30;;
29776;SDS011;16677;52.224;7.484;2023-04-06T09:49:56;13.40;;;11.63;;
29776;SDS011;16677;52.224;7.484;2023-04-06T09:52:59;15.10;;;12.37;;
29776;SDS011;16677;52.224;7.484;2023-04-06T09:55:26;13.60;;;11.97;;
29776;SDS011;16677;52.224;7.484;2023-04-06T09:58:09;16.50;;;12.17;;
29776;SDS011;16677;52.224;7.484;2023-04-06T10:00:48;15.03;;;12.30;;
29776;SDS011;16677;52.224;7.484;2023-04-06T17:18:47;16.70;;;11.73;;
29776;SDS011;16677;52.224;7.484;2023-04-06T17:21:14;15.37;;;12.23;;
29776;SDS011;16677;52.224;7.484;2023-04-06T17:23:43;15.00;;;13.40;;
29776;SDS011;16677;52.224;7.484;2023-04-06T17:26:10;19.10;;;14.23;;
29776;SDS011;16677;52.224;7.484;2023-04-06T17:28:38;20.33;;;16.97;;
29776;SDS011;16677;52.224;7.484;2023-04-06T17:31:08;17.10;;;13.70;;
29776;SDS011;16677;52.224;7.484;2023-04-06T17:33:37;16.53;;;14.33;;
29776;SDS011;16677;52.224;7.484;2023-04-06T17:36:06;17.80;;;15.00;;
29776;SDS011;16677;52.224;7.484;2023-04-06T17:38:36;18.17;;;15.97;;
29776;SDS011;16677;52.224;7.484;2023-04-06T17:41:09;17.17;;;15.20;;
29776;SDS011;16677;52.224;7.484;2023-04-06T17:43:37;15.97;;;14.27;;
29776;SDS011;16677;52.224;7.484;2023-04-06T17:46:04;18.63;;;14.60;;
29776;SDS011;16677;52.224;7.484;2023-04-06T17:50:59;20.17;;;18.00;;
29776;SDS011;16677;52.224;7.484;2023-04-06T17:53:26;20.83;;;17.37;;
29776;SDS011;16677;52.224;7.484;2023-04-06T17:56:00;18.83;;;16.40;;
29776;SDS011;16677;52.224;7.484;2023-04-06T17:58:31;17.80;;;15.93;;
29776;SDS011;16677;52.224;7.484;2023-04-06T18:01:02;18.73;;;15.33;;
29776;SDS011;16677;52.224;7.484;2023-04-06T18:03:33;17.57;;;15.77;;
29776;SDS011;16677;52.224;7.484;2023-04-06T18:08:41;16.90;;;15.10;;
29776;SDS011;16677;52.224;7.484;2023-04-06T18:11:15;16.53;;;14.67;;
29776;SDS011;16677;52.224;7.484;2023-04-06T18:13:44;15.63;;;14.00;;
29776;SDS011;16677;52.224;7.484;2023-04-06T18:16:11;18.33;;;14.23;;
29776;SDS011;16677;52.224;7.484;2023-04-06T18:18:39;15.43;;;13.03;;
29776;SDS011;16677;52.224;7.484;2023-04-06T18:21:06;17.97;;;14.03;;
29776;SDS011;16677;52.224;7.484;2023-04-06T18:23:33;16.97;;;14.23;;
29776;SDS011;16677;52.224;7.484;2023-04-06T18:26:03;17.60;;;14.27;;
29776;SDS011;16677;52.224;7.484;2023-04-06T18:28:31;17.00;;;15.20;;
29776;SDS011;16677;52.224;7.484;2023-04-06T18:30:59;17.43;;;14.67;;
29776;SDS011;16677;52.224;7.484;2023-04-06T18:33:27;17.07;;;15.27;;
29776;SDS011;16677;52.224;7.484;2023-04-06T18:35:55;16.43;;;14.73;;
29776;SDS011;16677;52.224;7.484;2023-04-06T18:38:22;16.80;;;14.97;;
29776;SDS011;16677;52.224;7.484;2023-04-06T18:40:50;18.33;;;15.20;;
29776;SDS011;16677;52.224;7.484;2023-04-06T18:43:17;19.73;;;15.43;;
29776;SDS011;16677;52.224;7.484;2023-04-06T18:45:44;17.30;;;15.47;;
29776;SDS011;16677;52.224;7.484;2023-04-06T18:48:11;16.83;;;15.03;;
29776;SDS011;16677;52.224;7.484;2023-04-06T18:50:43;16.47;;;14.47;;
29776;SDS011;16677;52.224;7.484;2023-04-06T18:53:24;17.77;;;14.37;;
29776;SDS011;16677;52.224;7.484;2023-04-06T18:55:51;17.43;;;14.50;;
29776;SDS011;16677;52.224;7.484;2023-04-06T18:58:18;17.80;;;13.70;;
29776;SDS011;16677;52.224;7.484;2023-04-06T19:00:45;16.40;;;14.03;;
29776;SDS011;16677;52.224;7.484;2023-04-06T19:03:12;15.73;;;13.10;;
29776;SDS011;16677;52.224;7.484;2023-04-06T19:05:40;14.93;;;12.90;;
29776;SDS011;16677;52.224;7.484;2023-04-06T19:08:07;16.77;;;13.67;;
29776;SDS011;16677;52.224;7.484;2023-04-06T19:10:35;14.73;;;13.23;;
29776;SDS011;16677;52.224;7.484;2023-04-06T19:13:04;14.80;;;13.07;;
29776;SDS011;16677;52.224;7.484;2023-04-06T19:15:31;15.50;;;13.90;;
29776;SDS011;16677;52.224;7.484;2023-04-06T19:17:58;15.90;;;14.30;;
29776;SDS011;16677;52.224;7.484;2023-04-06T19:20:25;16.20;;;14.00;;
29776;SDS011;16677;52.224;7.484;2023-04-06T19:22:52;16.90;;;14.93;;
29776;SDS011;16677;52.224;7.484;2023-04-06T19:25:20;17.93;;;15.60;;
29776;SDS011;16677;52.224;7.484;2023-04-06T19:27:48;17.37;;;15.07;;
29776;SDS011;16677;52.224;7.484;2023-04-06T19:30:15;17.63;;;15.87;;
29776;SDS011;16677;52.224;7.484;2023-04-06T19:32:42;16.83;;;15.13;;
29776;SDS011;16677;52.224;7.484;2023-04-06T19:35:09;20.20;;;15.63;;
29776;SDS011;16677;52.224;7.484;2023-04-06T19:37:36;18.20;;;16.20;;
29776;SDS011;16677;52.224;7.484;2023-04-06T19:40:04;20.93;;;16.23;;
29776;SDS011;16677;52.224;7.484;2023-04-06T19:42:36;17.17;;;15.10;;
29776;SDS011;16677;52.224;7.484;2023-04-06T19:45:04;16.87;;;15.17;;
29776;SDS011;16677;52.224;7.484;2023-04-06T19:47:32;16.63;;;14.93;;
29776;SDS011;16677;52.224;7.484;2023-04-06T19:50:03;16.97;;;15.17;;
29776;SDS011;16677;52.224;7.484;2023-04-06T19:52:32;17.47;;;14.73;;
29776;SDS011;16677;52.224;7.484;2023-04-06T19:54:59;15.63;;;14.03;;
29776;SDS011;16677;52.224;7.484;2023-04-06T19:57:26;15.83;;;14.17;;
29776;SDS011;16677;52.224;7.484;2023-04-06T19:59:53;16.43;;;14.63;;
29776;SDS011;16677;52.224;7.484;2023-04-06T20:02:21;18.73;;;15.23;;
29776;SDS011;16677;52.224;7.484;2023-04-06T20:04:49;16.93;;;15.13;;
29776;SDS011;16677;52.224;7.484;2023-04-06T20:07:16;17.40;;;15.60;;
29776;SDS011;16677;52.224;7.484;2023-04-06T20:09:43;17.53;;;15.70;;
29776;SDS011;16677;52.224;7.484;2023-04-06T20:12:10;18.57;;;16.03;;
29776;SDS011;16677;52.224;7.484;2023-04-06T20:14:37;16.10;;;14.50;;
29776;SDS011;16677;52.224;7.484;2023-04-06T20:17:04;17.63;;;15.07;;
29776;SDS011;16677;52.224;7.484;2023-04-06T20:19:31;17.97;;;15.10;;
29776;SDS011;16677;52.224;7.484;2023-04-06T20:21:58;16.77;;;14.93;;
29776;SDS011;16677;52.224;7.484;2023-04-06T20:24:29;18.53;;;15.70;;
29776;SDS011;16677;52.224;7.484;2023-04-06T20:26:56;18.80;;;16.20;;
29776;SDS011;16677;52.224;7.484;2023-04-06T20:29:23;18.53;;;15.23;;
29776;SDS011;16677;52.224;7.484;2023-04-06T20:31:50;16.70;;;14.90;;
29776;SDS011;16677;52.224;7.484;2023-04-06T20:34:18;16.33;;;14.63;;
29776;SDS011;16677;52.224;7.484;2023-04-06T20:36:45;19.03;;;15.83;;
29776;SDS011;16677;52.224;7.484;2023-04-06T20:39:13;17.07;;;14.50;;
29776;SDS011;16677;52.224;7.484;2023-04-06T20:41:40;18.70;;;15.80;;
29776;SDS011;16677;52.224;7.484;2023-04-06T20:44:07;16.87;;;14.70;;
29776;SDS011;16677;52.224;7.484;2023-04-06T20:46:35;16.83;;;14.97;;
29776;SDS011;16677;52.224;7.484;2023-04-06T20:49:02;17.77;;;15.03;;
29776;SDS011;16677;52.224;7.484;2023-04-06T20:51:29;18.53;;;15.93;;
29776;SDS011;16677;52.224;7.484;2023-04-06T20:53:56;16.97;;;15.17;;
29776;SDS011;16677;52.224;7.484;2023-04-06T20:56:23;16.87;;;15.13;;
29776;SDS011;16677;52.224;7.484;2023-04-06T20:58:51;17.70;;;15.37;;
29776;SDS011;16677;52.224;7.484;2023-04-06T21:01:19;17.87;;;15.53;;
29776;SDS011;16677;52.224;7.484;2023-04-06T21:03:46;18.63;;;15.67;;
29776;SDS011;16677;52.224;7.484;2023-04-06T21:06:13;16.43;;;13.80;;
29776;SDS011;16677;52.224;7.484;2023-04-06T21:08:41;16.47;;;14.63;;
29776;SDS011;16677;52.224;7.484;2023-04-06T21:11:08;17.83;;;14.77;;
29776;SDS011;16677;52.224;7.484;2023-04-06T21:13:35;16.40;;;14.70;;
29776;SDS011;16677;52.224;7.484;2023-04-06T21:16:03;16.67;;;14.90;;
29776;SDS011;16677;52.224;7.484;2023-04-06T21:18:31;15.80;;;14.17;;
29776;SDS011;16677;52.224;7.484;2023-04-06T21:20:58;16.60;;;14.90;;
29776;SDS011;16677;52.224;7.484;2023-04-06T21:23:25;15.90;;;14.20;;
29776;SDS011;16677;52.224;7.484;2023-04-06T21:25:52;17.27;;;14.77;;
29776;SDS011;16677;52.224;7.484;2023-04-06T21:28:23;16.40;;;14.77;;
29776;SDS011;16677;52.224;7.484;2023-04-06T21:30:54;16.00;;;14.30;;
29776;SDS011;16677;52.224;7.484;2023-04-06T21:33:22;15.97;;;14.27;;
29776;SDS011;16677;52.224;7.484;2023-04-06T21:35:49;18.07;;;15.83;;
29776;SDS011;16677;52.224;7.484;2023-04-06T21:38:16;19.17;;;15.40;;
29776;SDS011;16677;52.224;7.484;2023-04-06T21:40:43;17.10;;;15.23;;
29776;SDS011;16677;52.224;7.484;2023-04-06T21:43:10;18.57;;;15.10;;
29776;SDS011;16677;52.224;7.484;2023-04-06T21:45:37;17.57;;;15.30;;
29776;SDS011;16677;52.224;7.484;2023-04-06T21:48:05;16.60;;;14.80;;
29776;SDS011;16677;52.224;7.484;2023-04-06T21:50:32;18.67;;;15.43;;
29776;SDS011;16677;52.224;7.484;2023-04-06T21:53:04;17.33;;;15.43;;
29776;SDS011;16677;52.224;7.484;2023-04-06T21:55:31;19.03;;;15.90;;
29776;SDS011;16677;52.224;7.484;2023-04-06T21:57:58;18.23;;;16.30;;
29776;SDS011;16677;52.224;7.484;2023-04-06T22:00:25;18.27;;;16.43;;
29776;SDS011;16677;52.224;7.484;2023-04-06T22:02:53;18.27;;;16.37;;
29776;SDS011;16677;52.224;7.484;2023-04-06T22:05:20;19.60;;;16.67;;
29776;SDS011;16677;52.224;7.484;2023-04-06T22:07:47;19.17;;;17.20;;
29776;SDS011;16677;52.224;7.484;2023-04-06T22:10:14;19.70;;;16.50;;
29776;SDS011;16677;52.224;7.484;2023-04-06T22:12:41;21.23;;;17.40;;
29776;SDS011;16677;52.224;7.484;2023-04-06T22:15:10;19.03;;;16.40;;
29776;SDS011;16677;52.224;7.484;2023-04-06T22:17:38;19.80;;;17.73;;
29776;SDS011;16677;52.224;7.484;2023-04-06T22:20:05;19.10;;;17.10;;
29776;SDS011;16677;52.224;7.484;2023-04-06T22:22:33;19.40;;;17.40;;
29776;SDS011;16677;52.224;7.484;2023-04-06T22:25:00;19.67;;;16.80;;
29776;SDS011;16677;52.224;7.484;2023-04-06T22:27:27;19.77;;;17.77;;
29776;SDS011;16677;52.224;7.484;2023-04-06T22:29:54;19.63;;;17.63;;
29776;SDS011;16677;52.224;7.484;2023-04-06T22:32:21;19.60;;;17.50;;
29776;SDS011;16677;52.224;7.484;2023-04-06T22:34:48;19.87;;;17.87;;
29776;SDS011;16677;52.224;7.484;2023-04-06T22:37:16;20.00;;;17.93;;
29776;SDS011;16677;52.224;7.484;2023-04-06T22:39:43;20.17;;;18.07;;
29776;SDS011;16677;52.224;7.484;2023-04-06T22:42:10;20.13;;;17.93;;
29776;SDS011;16677;52.224;7.484;2023-04-06T22:44:37;20.73;;;18.57;;
29776;SDS011;16677;52.224;7.484;2023-04-06T22:47:04;20.80;;;18.40;;
29776;SDS011;16677;52.224;7.484;2023-04-06T22:49:31;22.33;;;19.57;;
29776;SDS011;16677;52.224;7.484;2023-04-06T22:51:59;20.00;;;17.90;;
29776;SDS011;16677;52.224;7.484;2023-04-06T22:54:26;20.33;;;18.13;;
29776;SDS011;16677;52.224;7.484;2023-04-06T22:56:53;21.80;;;19.50;;
29776;SDS011;16677;52.224;7.484;2023-04-06T22:59:21;21.07;;;18.83;;
29776;SDS011;16677;52.224;7.484;2023-04-06T23:01:48;21.83;;;19.40;;
29776;SDS011;16677;52.224;7.484;2023-04-06T23:04:15;21.83;;;18.30;;
29776;SDS011;16677;52.224;7.484;2023-04-06T23:06:43;20.80;;;18.60;;
29776;SDS011;16677;52.224;7.484;2023-04-06T23:09:10;21.07;;;18.60;;
29776;SDS011;16677;52.224;7.484;2023-04-06T23:11:37;21.00;;;18.80;;
29776;SDS011;16677;52.224;7.484;2023-04-06T23:14:05;19.90;;;17.80;;
29776;SDS011;16677;52.224;7.484;2023-04-06T23:16:32;19.47;;;17.47;;
29776;SDS011;16677;52.224;7.484;2023-04-06T23:18:59;20.53;;;17.80;;
29776;SDS011;16677;52.224;7.484;2023-04-06T23:21:26;20.73;;;18.53;;
29776;SDS011;16677;52.224;7.484;2023-04-06T23:23:55;19.30;;;17.10;;
29776;SDS011;16677;52.224;7.484;2023-04-06T23:26:23;20.77;;;17.80;;
29776;SDS011;16677;52.224;7.484;2023-04-06T23:28:50;20.73;;;16.80;;
29776;SDS011;16677;52.224;7.484;2023-04-06T23:31:17;20.23;;;18.10;;
29776;SDS011;16677;52.224;7.484;2023-04-06T23:33:45;19.63;;;17.50;;
29776;SDS011;16677;52.224;7.484;2023-04-06T23:36:12;19.07;;;17.07;;
29776;SDS011;16677;52.224;7.484;2023-04-06T23:38:39;18.70;;;16.80;;
29776;SDS011;16677;52.224;7.484;2023-04-06T23:41:06;20.60;;;17.33;;
29776;SDS011;16677;52.224;7.484;2023-04-06T23:43:34;20.00;;;17.33;;
29776;SDS011;16677;52.224;7.484;2023-04-06T23:46:01;23.00;;;17.80;;
29776;SDS011;16677;52.224;7.484;2023-04-06T23:48:28;22.17;;;17.90;;
29776;SDS011;16677;52.224;7.484;2023-04-06T23:50:55;21.73;;;18.17;;
29776;SDS011;16677;52.224;7.484;2023-04-06T23:53:22;20.27;;;17.97;;
29776;SDS011;16677;52.224;7.484;2023-04-06T23:55:50;20.70;;;18.53;;
29776;SDS011;16677;52.224;7.484;2023-04-06T23:58:17;20.53;;;18.33;;
